TimeEDT,TemperatureF,Dew PointF,Humidity,Sea Level PressureIn,VisibilityMPH,Wind Direction,Wind SpeedMPH,Gust SpeedMPH,PrecipitationIn,Events,Conditions,WindDirDegrees,DateUTC
12:56 AM,62.1,52.0,70,30.11,10.0,SE,4.6,-,N/A,,Mostly Cloudy,140,2013-05-03 04:56:00
1:56 AM,60.1,53.1,78,30.10,10.0,SSE,5.8,-,N/A,,Mostly Cloudy,150,2013-05-03 05:56:00
2:56 AM,59.0,53.1,81,30.08,10.0,ESE,5.8,-,N/A,,Scattered Clouds,120,2013-05-03 06:56:00
3:56 AM,57.0,52.0,83,30.08,10.0,SE,6.9,-,N/A,,Mostly Cloudy,140,2013-05-03 07:56:00
4:56 AM,60.1,54.0,80,30.08,10.0,SSE,10.4,-,N/A,,Mostly Cloudy,150,2013-05-03 08:56:00
5:56 AM,60.1,53.1,78,30.08,10.0,SSE,9.2,-,N/A,,Mostly Cloudy,150,2013-05-03 09:56:00
6:56 AM,59.0,53.1,81,30.09,10.0,SE,10.4,-,N/A,,Mostly Cloudy,130,2013-05-03 10:56:00
7:56 AM,62.1,53.1,72,30.10,10.0,SE,12.7,18.4,N/A,,Mostly Cloudy,140,2013-05-03 11:56:00
8:56 AM,64.0,53.1,67,30.10,10.0,SSE,15.0,20.7,N/A,,Scattered Clouds,150,2013-05-03 12:56:00
9:56 AM,66.0,54.0,65,30.10,10.0,SE,15.0,-,N/A,,Scattered Clouds,140,2013-05-03 13:56:00
10:56 AM,68.0,55.0,63,30.09,10.0,SE,12.7,-,N/A,,Mostly Cloudy,130,2013-05-03 14:56:00
11:56 AM,70.0,55.9,61,30.07,10.0,SE,10.4,-,N/A,,Mostly Cloudy,140,2013-05-03 15:56:00
12:56 PM,72.0,55.0,55,30.05,10.0,SE,11.5,-,N/A,,Mostly Cloudy,130,2013-05-03 16:56:00
1:56 PM,73.0,54.0,51,30.03,10.0,SE,16.1,-,N/A,,Mostly Cloudy,130,2013-05-03 17:56:00
2:56 PM,75.0,54.0,48,30.01,10.0,East,20.7,25.3,N/A,,Mostly Cloudy,100,2013-05-03 18:56:00
3:56 PM,75.0,53.1,46,30.00,10.0,SE,16.1,21.9,N/A,,Mostly Cloudy,130,2013-05-03 19:56:00
4:56 PM,75.0,53.1,46,29.99,10.0,SE,13.8,24.2,N/A,,Mostly Cloudy,130,2013-05-03 20:56:00
5:56 PM,73.0,52.0,48,29.99,10.0,SE,11.5,20.7,N/A,,Mostly Cloudy,130,2013-05-03 21:56:00
6:56 PM,72.0,48.9,44,29.99,10.0,ESE,12.7,21.9,N/A,,Mostly Cloudy,120,2013-05-03 22:56:00
7:56 PM,70.0,37.9,31,30.00,10.0,SE,11.5,-,N/A,,Mostly Cloudy,140,2013-05-03 23:56:00
8:56 PM,66.9,39.9,37,30.01,10.0,SE,10.4,-,N/A,,Mostly Cloudy,130,2013-05-04 00:56:00
9:56 PM,66.0,41.0,40,30.01,10.0,ESE,10.4,-,N/A,,Mostly Cloudy,120,2013-05-04 01:56:00
10:56 PM,64.0,37.9,38,30.02,10.0,SE,11.5,-,N/A,,Mostly Cloudy,140,2013-05-04 02:56:00
11:56 PM,64.0,36.0,35,30.02,10.0,SE,16.1,23.0,N/A,,Mostly Cloudy,130,2013-05-04 03:56:00